This is the latest recevied weather packets stored in our database for station/object KB2FWP. If no packets are shown the sender has not sent any weather packets the latest 10 day(s).
| Time | Temp. | Humidity | Pressure | Rain* | Wind** | Luminosity | Snow |
|---|---|---|---|---|---|---|---|
| 1787964371 | 23.89° C | 88% | 1018.1 hPa | 0 mm | - | - | - |
| 1787963456 | 23.89° C | 88% | 1018 hPa | 0 mm | - | - | - |
| 1787962554 | 24.44° C | 87% | 1017.8 hPa | 0 mm | - | - | - |
| 1787961664 | 24.44° C | 87% | 1017.6 hPa | 0 mm | - | - | - |
| 1787960753 | 24.44° C | 87% | 1017.6 hPa | 0 mm | - | - | - |
| 1787959861 | 24.44° C | 86% | 1017.5 hPa | 0 mm | - | - | - |
| 1787958951 | 24.44° C | 86% | 1017.4 hPa | 0 mm | - | - | - |
| 1787958054 | 24.44° C | 87% | 1017.3 hPa | 0 mm | - | - | - |
| 1787957153 | 24.44° C | 87% | 1017.3 hPa | 0 mm | - | - | - |
| 1787956251 | 24.44° C | 87% | 1017.3 hPa | 0 mm | - | - | - |
| 1787955353 | 24.44° C | 87% | 1017.3 hPa | 0 mm | - | - | - |
| 1787954449 | 24.44° C | 87% | 1017.1 hPa | 0 mm | - | - | - |
| 1787953549 | 24.44° C | 88% | 1017.2 hPa | 0 mm | - | - | - |
| 1787952649 | 25.56° C | 81% | 1017.2 hPa | 0 mm | - | - | - |
| 1787951750 | 26.67° C | 77% | 1017.1 hPa | 0 mm | - | - | - |
| 1787950847 | 27.22° C | 76% | 1017 hPa | 0 mm | - | - | - |
| 1787949954 | 27.22° C | 75% | 1016.9 hPa | 0 mm | - | - | - |
| 1787949046 | 27.22° C | 75% | 1016.8 hPa | 0 mm | - | - | - |
| 1787948148 | 27.22° C | 75% | 1016.9 hPa | 0 mm | - | - | - |
| 1787947244 | 26.67° C | 76% | 1017.1 hPa | 0 mm | - | - | - |
| 1787946344 | 26.67° C | 77% | 1017.1 hPa | 0 mm | - | - | - |
| 1787945504 | 26.67° C | 77% | 1017.1 hPa | 0 mm | - | - | - |
| 1787944542 | 26.67° C | 77% | 1017.2 hPa | 0 mm | - | - | - |
| 1787943642 | 26.67° C | 79% | 1017.2 hPa | 0 mm | - | - | - |
| 1787942749 | 27.78° C | 77% | 1017.3 hPa | 0 mm | - | - | - |
* Rain latest hour (hover to see other rain measurements)
** Current wind speed in m/s (hover to see current wind gust speed)